Map

Track Data

SID SEASON NUMBER BASIN SUBBASIN NAME ISO_TIME NATURE LAT LON WMO_WIND WMO_PRES WMO_AGENCY TRACK_TYPE DIST2LAND LANDFALL IFLAG USA_AGENCY USA_ATCF_ID USA_LAT USA_LON USA_RECORD USA_STATUS USA_WIND USA_PRES USA_SSHS USA_R34_NE USA_R34_SE USA_R34_SW USA_R34_NW USA_R50_NE USA_R50_SE USA_R50_SW USA_R50_NW USA_R64_NE USA_R64_SE USA_R64_SW USA_R64_NW USA_POCI USA_ROCI USA_RMW USA_EYE TOKYO_LAT TOKYO_LON TOKYO_GRADE TOKYO_WIND TOKYO_PRES TOKYO_R50_DIR TOKYO_R50_LONG TOKYO_R50_SHORT TOKYO_R30_DIR TOKYO_R30_LONG TOKYO_R30_SHORT TOKYO_LAND CMA_LAT CMA_LON CMA_CAT CMA_WIND CMA_PRES HKO_LAT HKO_LON HKO_CAT HKO_WIND HKO_PRES NEWDELHI_LAT NEWDELHI_LON NEWDELHI_GRADE NEWDELHI_WIND NEWDELHI_PRES NEWDELHI_CI NEWDELHI_DP NEWDELHI_POCI REUNION_LAT REUNION_LON REUNION_TYPE REUNION_WIND REUNION_PRES REUNION_TNUM REUNION_CI REUNION_RMW REUNION_R34_NE REUNION_R34_SE REUNION_R34_SW REUNION_R34_NW REUNION_R50_NE REUNION_R50_SE REUNION_R50_SW REUNION_R50_NW REUNION_R64_NE REUNION_R64_SE REUNION_R64_SW REUNION_R64_NW BOM_LAT BOM_LON BOM_TYPE BOM_WIND BOM_PRES BOM_TNUM BOM_CI BOM_RMW BOM_R34_NE BOM_R34_SE BOM_R34_SW BOM_R34_NW BOM_R50_NE BOM_R50_SE BOM_R50_SW BOM_R50_NW BOM_R64_NE BOM_R64_SE BOM_R64_SW BOM_R64_NW BOM_ROCI BOM_POCI BOM_EYE BOM_POS_METHOD BOM_PRES_METHOD NADI_LAT NADI_LON NADI_CAT NADI_WIND NADI_PRES WELLINGTON_LAT WELLINGTON_LON WELLINGTON_WIND WELLINGTON_PRES DS824_LAT DS824_LON DS824_STAGE DS824_WIND DS824_PRES TD9636_LAT TD9636_LON TD9636_STAGE TD9636_WIND TD9636_PRES TD9635_LAT TD9635_LON TD9635_WIND TD9635_PRES TD9635_ROCI NEUMANN_LAT NEUMANN_LON NEUMANN_CLASS NEUMANN_WIND NEUMANN_PRES MLC_LAT MLC_LON MLC_CLASS MLC_WIND MLC_PRES USA_GUST BOM_GUST BOM_GUST_PER REUNION_GUST REUNION_GUST_PER USA_SEAHGT USA_SEARAD_NE USA_SEARAD_SE USA_SEARAD_SW USA_SEARAD_NW STORM_SPEED STORM_DIR
1930358S15124 1931 61 SI WA NOT_NAMED 1930-12-24 11:00:00 NR -15.2000 124.200 main 49 49 __________O___ -1 -15.2000 124.200 7 1 0
1930358S15124 1931 61 SI WA NOT_NAMED 1930-12-24 12:00:00 NR -15.1898 124.216 main 49 49 __________P___ -1 -15.1898 124.216 7 1 51
1930358S15124 1931 61 SI WA NOT_NAMED 1930-12-24 15:00:00 NR -15.1566 124.250 main 46 46 __________P___ -1 -15.1566 124.250 7 1 16
1930358S15124 1931 61 SI WA NOT_NAMED 1930-12-24 18:00:00 NR -15.1136 124.235 main 59 59 __________P___ -1 -15.1136 124.235 7 2 312
1930358S15124 1931 61 SI WA NOT_NAMED 1930-12-24 21:00:00 NR -15.0534 124.134 main 64 64 __________P___ -1 -15.0534 124.134 7 3 297
1930358S15124 1931 61 SI WA NOT_NAMED 1930-12-24 23:00:00 NR -15.0000 124.000 main 79 79 __________O___ -1 -15.0000 124.000 7 5 291
1930358S15124 1931 61 SI WA NOT_NAMED 1930-12-25 00:00:00 NR -14.9687 123.910 main 85 85 __________P___ -1 -14.9687 123.910 7 7 288
1930358S15124 1931 61 SI WA NOT_NAMED 1930-12-25 03:00:00 NR -14.8650 123.560 main 116 116 __________P___ -1 -14.8650 123.560 7 8 285
1930358S15124 1931 61 SI WA NOT_NAMED 1930-12-25 06:00:00 NR -14.7686 123.135 main 165 165 __________P___ -1 -14.7686 123.135 7 9 281
1930358S15124 1931 61 SI WA NOT_NAMED 1930-12-25 09:00:00 NR -14.7073 122.686 main 199 199 __________P___ -1 -14.7073 122.686 7 9 276
1930358S15124 1931 61 SI WA NOT_NAMED 1930-12-25 11:00:00 NR -14.7000 122.400 main 208 208 __________O___ -1 -14.7000 122.400 7 8 270
1930358S15124 1931 61 SI WA NOT_NAMED 1930-12-25 12:00:00 NR -14.7062 122.277 main 211 211 __________P___ -1 -14.7062 122.277 7 7 262
1930358S15124 1931 61 SI WA NOT_NAMED 1930-12-25 15:00:00 NR -14.7653 121.921 main 218 218 __________P___ -1 -14.7653 121.921 7 7 255
1930358S15124 1931 61 SI WA NOT_NAMED 1930-12-25 18:00:00 NR -14.8828 121.590 main 226 225 __________P___ -1 -14.8828 121.590 7 7 245
1930358S15124 1931 61 SI WA NOT_NAMED 1930-12-25 21:00:00 NR -15.0557 121.286 main 232 232 __________P___ -1 -15.0557 121.286 7 7 236
1930358S15124 1931 61 SI WA NOT_NAMED 1930-12-25 23:00:00 NR -15.2000 121.100 main 239 239 __________O___ -1 -15.2000 121.100 7 7 232
1930358S15124 1931 61 SI WA NOT_NAMED 1930-12-26 00:00:00 NR -15.2703 121.003 main 239 239 __________P___ -1 -15.2703 121.003 7 6 245
1930358S15124 1931 61 SI WA NOT_NAMED 1930-12-26 01:00:00 NR -15.2775 120.927 bom main 247 247 ______O___P___ -1 -15.0000 121.000 -15.3469 120.909 7 5 232
1930358S15124 1931 61 SI WA NOT_NAMED 1930-12-26 03:00:00 NR -15.4392 120.782 main 247 239 ______P___P___ -1 -15.2825 120.886 -15.5175 120.731 7 7 214
1930358S15124 1931 61 SI WA NOT_NAMED 1930-12-26 06:00:00 NR -15.7671 120.589 main 232 222 ______P___P___ -1 -15.7049 120.718 -15.8138 120.493 7 8 206
1930358S15124 1931 61 SI WA NOT_NAMED 1930-12-26 09:00:00 NR -16.1383 120.428 main 231 221 ______P___P___ -1 -16.1234 120.556 -16.1531 120.300 7 8 202
1930358S15124 1931 61 SI WA NOT_NAMED 1930-12-26 11:00:00 NR -16.3996 120.327 main 225 221 ______P___O___ -1 -16.3993 120.455 -16.4000 120.200 7 8 200
1930358S15124 1931 61 SI WA NOT_NAMED 1930-12-26 12:00:00 NR -16.5316 120.280 main 221 216 ______P___P___ -1 -16.5359 120.406 -16.5273 120.154 7 8 196
1930358S15124 1931 61 SI WA NOT_NAMED 1930-12-26 15:00:00 NR -16.9390 120.161 main 216 212 ______P___P___ -1 -16.9402 120.272 -16.9379 120.051 7 9 193
1930358S15124 1931 61 SI WA NOT_NAMED 1930-12-26 18:00:00 NR -17.3542 120.078 main 213 205 ______P___P___ -1 -17.3340 120.158 -17.3744 119.997 7 8 189
1930358S15124 1931 61 SI WA NOT_NAMED 1930-12-26 21:00:00 NR -17.7650 120.028 main 200 191 ______P___P___ -1 -17.7151 120.070 -17.8149 119.986 7 8 184
1930358S15124 1931 61 SI WA NOT_NAMED 1930-12-26 23:00:00 NR -18.0306 120.014 main 191 187 ______P___O___ -1 -17.9612 120.028 -18.1000 120.000 7 8 0
1930358S15124 1931 61 SI WA NOT_NAMED 1930-12-27 00:00:00 NR -18.1572 120.014 main 183 173 ______P___P___ -1 -18.0815 120.012 -18.2329 120.015 7 8 0
1930358S15124 1931 61 SI WA NOT_NAMED 1930-12-27 01:00:00 NR -18.2820 120.018 bom main 173 153 ______O___P___ -1 -18.2000 120.000 -18.3641 120.037 7 7 0
1930358S15124 1931 61 SI WA NOT_NAMED 1930-12-27 03:00:00 NR -18.5264 120.040 main 153 109 ______P___P___ -1 -18.4315 119.988 -18.6213 120.092 7 7 173
1930358S15124 1931 61 SI WA NOT_NAMED 1930-12-27 06:00:00 NR -18.8830 120.091 main 109 78 ______P___P___ -1 -18.7697 119.994 -18.9962 120.189 7 7 172
1930358S15124 1931 61 SI WA NOT_NAMED 1930-12-27 09:00:00 NR -19.2329 120.146 main 78 54 ______P___P___ -1 -19.1048 120.021 -19.3610 120.271 7 7 172
1930358S15124 1931 61 SI WA NOT_NAMED 1930-12-27 11:00:00 NR -19.4653 120.173 main 44 33 ______P___O___ -1 -19.3307 120.046 -19.6000 120.300 7 7 176
1930358S15124 1931 61 SI WA NOT_NAMED 1930-12-27 12:00:00 NR -19.5771 120.173 main 33 0 ______P___P___ -1 -19.4453 120.060 -19.7090 120.287 7 7 181
1930358S15124 1931 61 SI WA NOT_NAMED 1930-12-27 15:00:00 NR -19.9129 120.155 bom main 0 0 ______O___P___ -1 -19.8000 120.100 -20.0258 120.210 7 7 183
1930358S15124 1931 61 SI WA NOT_NAMED 1930-12-27 18:00:00 NR -20.2982 120.128 main 0 0 ______P___P___ -1 -20.2447 120.146 -20.3517 120.110 7 8 183
1930358S15124 1931 61 SI WA NOT_NAMED 1930-12-27 21:00:00 NR -20.6959 120.106 main 0 0 ______P___P___ -1 -20.6739 120.186 -20.7179 120.027 7 8 0
1930358S15124 1931 61 SI WA NOT_NAMED 1930-12-27 23:00:00 NR -20.9583 120.101 main 0 0 ______P___O___ -1 -20.9166 120.201 -21.0000 120.000 7 8 183
1930358S15124 1931 61 SI WA NOT_NAMED 1930-12-28 00:00:00 NR -21.0990 120.094 main 0 0 ______P___P___ -1 -21.0170 120.203 -21.1809 119.985 7 8 186
1930358S15124 1931 61 SI WA NOT_NAMED 1930-12-28 01:00:00 NR -21.2367 120.087 bom main 0 0 ______O___P___ -1 -21.1000 120.200 -21.3733 119.975 7 8 184
1930358S15124 1931 61 SI WA NOT_NAMED 1930-12-28 03:00:00 NR -21.4897 120.072 main 0 0 ______P___P___ -1 -21.1980 120.175 -21.7813 119.970 7 7 181
1930358S15124 1931 61 SI WA NOT_NAMED 1930-12-28 06:00:00 NR -21.8417 120.074 main 0 0 ______P___P___ -1 -21.2754 120.119 -22.4080 120.028 7 7 0
1930358S15124 1931 61 SI WA NOT_NAMED 1930-12-28 07:00:00 NR -21.9547 120.086 bom main 0 0 ______O___P___ -1 -21.3000 120.100 -22.6093 120.071 7 7 171
1930358S15124 1931 61 SI WA NOT_NAMED 1930-12-28 09:00:00 NR -22.1752 120.135 main 0 0 ______P___P___ -1 -21.3670 120.068 -22.9834 120.201 7 7 163
1930358S15124 1931 61 SI WA NOT_NAMED 1930-12-28 11:00:00 NR -22.3787 120.222 main 0 0 ______P___O___ -1 -21.4574 120.044 -23.3000 120.400 7 7 155
1930358S15124 1931 61 SI WA NOT_NAMED 1930-12-28 12:00:00 NR -22.4704 120.281 main 0 0 ______P___P___ -1 -21.5104 120.034 -23.4303 120.529 7 6 140
1930358S15124 1931 61 SI WA NOT_NAMED 1930-12-28 15:00:00 NR -22.7066 120.516 main 0 0 ______P___P___ -1 -21.6967 120.013 -23.7165 121.020 7 5 127
1930358S15124 1931 61 SI WA NOT_NAMED 1930-12-28 18:00:00 NR -22.7577 120.701 main 0 0 ______P___P___ -1 -21.9159 120.002 -23.8800 121.632 7 2 103
1930358S15124 1931 61 SI WA NOT_NAMED 1930-12-28 21:00:00 NR -22.7604 120.773 main 0 0 ______P___P___ -1 -22.1582 119.999 -23.9649 122.321 7 0 0
1930358S15124 1931 61 SI WA NOT_NAMED 1930-12-28 23:00:00 NR -22.7457 120.699 main 0 0 ______P___O___ -1 -22.3276 119.999 -24.0000 122.800 7 16 296
1930358S15124 1931 61 SI WA NOT_NAMED 1930-12-29 00:00:00 NR -22.4136 119.999 main 0 0 ______P_______ -1 -22.4136 119.999 7 21 291
1930358S15124 1931 61 SI WA NOT_NAMED 1930-12-29 01:00:00 NR -22.5000 120.000 bom main 0 ______O_______ -1 -22.5000 120.000 7 5 167

About IBTrACS Database

This database is a web-friendly format of International Best Track Archive for Climate Stewardship (IBTrACS), a global best track data archive curated by NOAA dating back to 1842.

Updated: 2021-11-26